createdAt,value
2023-03-04T00:00:05.599Z,32.70
2023-03-04T00:02:05.953Z,34.20
2023-03-04T00:04:06.279Z,35.90
2023-03-04T00:06:06.531Z,35.30
2023-03-04T00:08:06.875Z,36.00
2023-03-04T00:10:07.320Z,35.70
2023-03-04T00:12:07.622Z,36.90
2023-03-04T00:14:07.896Z,38.00
2023-03-04T00:16:08.227Z,36.30
2023-03-04T00:18:08.505Z,37.80
2023-03-04T00:20:08.804Z,38.20
2023-03-04T00:22:09.107Z,38.70
2023-03-04T00:24:09.400Z,37.60
2023-03-04T00:26:09.741Z,38.40
2023-03-04T00:28:10.006Z,38.40
2023-03-04T00:30:10.308Z,39.20
2023-03-04T00:32:10.673Z,39.40
2023-03-04T00:34:10.997Z,40.20
2023-03-04T00:36:11.360Z,39.40
2023-03-04T00:38:11.655Z,39.70
2023-03-04T00:40:16.806Z,40.70
2023-03-04T00:42:17.090Z,41.10
2023-03-04T00:44:17.417Z,40.60
2023-03-04T00:46:17.772Z,42.40
2023-03-04T00:48:18.050Z,40.00
2023-03-04T00:50:19.069Z,40.30
2023-03-04T00:52:19.360Z,41.40
2023-03-04T00:54:19.615Z,41.70
2023-03-04T00:56:19.939Z,40.20
2023-03-04T00:58:20.257Z,40.80
2023-03-04T01:00:20.556Z,40.20
2023-03-04T01:02:21.635Z,41.60
2023-03-04T01:04:21.979Z,40.90
2023-03-04T01:06:22.226Z,41.20
2023-03-04T01:08:22.539Z,41.00
2023-03-04T01:10:23.560Z,39.80
2023-03-04T01:12:23.855Z,40.50
2023-03-04T01:14:24.169Z,43.90
2023-03-04T01:16:24.569Z,43.70
2023-03-04T01:18:24.858Z,43.30
2023-03-04T01:20:25.153Z,42.80
2023-03-04T01:22:25.465Z,43.30
2023-03-04T01:24:25.727Z,42.20
2023-03-04T01:26:26.065Z,42.50
2023-03-04T01:28:26.349Z,42.60
2023-03-04T01:30:26.617Z,41.90
2023-03-04T01:32:26.980Z,42.70
2023-03-04T01:34:27.293Z,42.10
2023-03-04T01:36:28.061Z,42.10
2023-03-04T01:38:28.317Z,42.40
2023-03-04T01:40:28.634Z,42.80
2023-03-04T01:42:28.917Z,43.80
2023-03-04T01:44:29.211Z,43.70
2023-03-04T01:46:29.587Z,43.60
2023-03-04T01:48:29.871Z,44.60
2023-03-04T01:50:30.171Z,42.60
2023-03-04T01:52:30.476Z,45.40
2023-03-04T01:54:30.787Z,44.60
2023-03-04T01:56:31.084Z,43.50
2023-03-04T01:58:31.341Z,44.70
2023-03-04T02:00:31.785Z,45.30
2023-03-04T02:02:32.344Z,43.90
2023-03-04T02:04:32.753Z,42.80
2023-03-04T02:06:33.016Z,43.50
2023-03-04T02:08:33.356Z,44.40
2023-03-04T02:10:33.648Z,43.80
2023-03-04T02:12:33.969Z,44.60
2023-03-04T02:14:34.290Z,43.80
2023-03-04T02:16:34.553Z,46.30
2023-03-04T02:18:34.867Z,44.90
2023-03-04T02:20:35.210Z,45.10
2023-03-04T02:22:35.485Z,44.80
2023-03-04T02:24:35.818Z,45.10
2023-03-04T02:26:36.078Z,46.50
2023-03-04T02:28:36.347Z,46.50
2023-03-04T02:30:36.655Z,45.70
2023-03-04T02:32:36.969Z,46.00
2023-03-04T02:34:37.230Z,45.20
2023-03-04T02:36:37.554Z,45.70
2023-03-04T02:38:37.833Z,48.20
2023-03-04T02:40:38.229Z,45.50
2023-03-04T02:42:38.523Z,47.70
2023-03-04T02:44:38.806Z,43.90
2023-03-04T02:46:39.161Z,44.60
2023-03-04T02:48:39.445Z,45.30
2023-03-04T02:50:39.765Z,48.50
2023-03-04T02:52:40.042Z,45.90
2023-03-04T02:54:40.337Z,44.70
2023-03-04T02:56:40.680Z,47.50
2023-03-04T02:58:40.937Z,45.80
2023-03-04T03:00:41.302Z,46.80
2023-03-04T03:02:42.586Z,47.20
2023-03-04T03:04:42.888Z,47.80
2023-03-04T03:06:43.139Z,45.30
2023-03-04T03:08:43.464Z,46.50
2023-03-04T03:10:43.793Z,44.80
2023-03-04T03:12:44.075Z,45.70
2023-03-04T03:14:44.379Z,44.50
2023-03-04T03:16:44.722Z,43.20
2023-03-04T03:18:45.043Z,46.40
2023-03-04T03:20:45.321Z,45.90
2023-03-04T03:22:45.594Z,47.70
2023-03-04T03:24:45.940Z,46.40
2023-03-04T03:26:46.335Z,48.30
2023-03-04T03:28:46.640Z,47.40
2023-03-04T03:30:46.924Z,48.00
2023-03-04T03:32:47.293Z,44.60
2023-03-04T03:34:47.591Z,45.50
2023-03-04T03:36:47.897Z,46.70
2023-03-04T03:38:48.172Z,45.90
2023-03-04T03:40:48.514Z,46.80
2023-03-04T03:42:48.780Z,47.30
2023-03-04T03:44:49.106Z,47.80
2023-03-04T03:46:49.380Z,46.40
2023-03-04T03:48:49.720Z,48.20
2023-03-04T03:50:50.021Z,50.90
2023-03-04T03:52:50.348Z,49.90
2023-03-04T03:54:50.610Z,49.30
2023-03-04T03:56:50.905Z,46.30
2023-03-04T03:58:51.191Z,47.60
2023-03-04T04:00:51.474Z,44.90
2023-03-04T04:02:51.859Z,45.50
2023-03-04T04:04:52.122Z,46.70
2023-03-04T04:06:52.567Z,48.20
2023-03-04T04:08:52.859Z,44.40
2023-03-04T04:10:53.227Z,44.50
2023-03-04T04:12:53.628Z,44.40
2023-03-04T04:14:53.933Z,48.10
